createdAt,value
2022-09-15T00:02:23.111Z,1.00
2022-09-15T00:04:49.797Z,1.00
2022-09-15T00:07:16.406Z,1.00
2022-09-15T00:09:43.037Z,1.00
2022-09-15T00:12:09.797Z,1.00
2022-09-15T00:14:36.437Z,1.00
2022-09-15T00:17:03.876Z,1.00
2022-09-15T00:19:30.561Z,1.00
2022-09-15T00:21:57.223Z,1.00
2022-09-15T00:24:25.998Z,1.00
2022-09-15T00:26:52.669Z,1.00
2022-09-15T00:29:19.355Z,1.00
2022-09-15T00:31:45.963Z,1.00
2022-09-15T00:34:14.004Z,1.00
2022-09-15T00:36:40.844Z,1.00
2022-09-15T00:39:08.029Z,1.00
2022-09-15T00:41:34.717Z,1.00
2022-09-15T00:44:23.364Z,1.00
2022-09-15T00:47:09.314Z,1.00
2022-09-15T00:49:39.241Z,1.00
2022-09-15T00:52:20.118Z,1.00
2022-09-15T00:54:53.211Z,1.30
2022-09-15T00:57:30.501Z,1.00
2022-09-15T00:59:59.009Z,1.00
2022-09-15T01:02:29.280Z,2.10
2022-09-15T01:04:58.603Z,1.00
2022-09-15T01:07:43.119Z,1.00
2022-09-15T01:10:17.913Z,1.40
2022-09-15T01:12:47.535Z,1.30
2022-09-15T01:15:14.499Z,2.30
2022-09-15T01:18:02.051Z,2.60
2022-09-15T01:21:05.616Z,2.20
2022-09-15T01:24:00.373Z,2.50
2022-09-15T01:26:55.037Z,2.40
2022-09-15T01:29:37.097Z,2.80
2022-09-15T01:32:27.061Z,1.50
2022-09-15T01:35:11.523Z,1.60
2022-09-15T01:37:41.565Z,1.00
2022-09-15T01:40:09.960Z,1.00
2022-09-15T01:42:37.921Z,2.20
2022-09-15T01:45:11.619Z,1.00
2022-09-15T01:47:39.905Z,1.00
2022-09-15T01:50:10.858Z,1.00
2022-09-15T01:52:41.357Z,1.00
2022-09-15T01:55:16.932Z,1.00
2022-09-15T01:57:43.640Z,1.00
2022-09-15T02:00:10.985Z,1.00
2022-09-15T02:02:48.663Z,1.00
2022-09-15T02:05:18.342Z,1.00
2022-09-15T02:07:59.946Z,1.00
2022-09-15T02:10:41.259Z,1.00
2022-09-15T02:13:24.969Z,3.00
2022-09-15T02:15:55.668Z,1.20
2022-09-15T02:18:36.288Z,1.00
2022-09-15T02:21:10.681Z,1.00
2022-09-15T02:23:41.819Z,1.00
2022-09-15T02:26:12.793Z,1.00
2022-09-15T02:28:40.838Z,1.00
2022-09-15T02:31:10.432Z,1.40
2022-09-15T02:33:41.002Z,1.00
2022-09-15T02:36:08.818Z,1.00
2022-09-15T02:38:39.771Z,1.00
2022-09-15T02:41:06.592Z,1.00
2022-09-15T02:43:34.045Z,1.00
2022-09-15T02:46:00.904Z,1.00
2022-09-15T02:48:27.573Z,1.00
2022-09-15T02:50:54.209Z,1.00
2022-09-15T02:53:20.885Z,1.00
2022-09-15T02:55:47.495Z,1.00
2022-09-15T02:58:14.082Z,1.00
2022-09-15T03:00:40.813Z,1.20
2022-09-15T03:03:08.246Z,1.00
2022-09-15T03:05:34.851Z,1.00
2022-09-15T03:08:02.297Z,1.00
2022-09-15T03:10:29.058Z,1.20
2022-09-15T03:12:55.717Z,1.00
2022-09-15T03:15:24.650Z,1.00
2022-09-15T03:17:52.154Z,1.00
2022-09-15T03:20:22.547Z,1.40
2022-09-15T03:22:49.618Z,1.00
2022-09-15T03:25:17.223Z,1.00
2022-09-15T03:27:43.973Z,1.00
2022-09-15T03:30:11.642Z,1.80
2022-09-15T03:32:38.467Z,1.00
2022-09-15T03:35:06.095Z,1.00
2022-09-15T03:37:33.247Z,1.00
2022-09-15T03:40:00.151Z,1.00
2022-09-15T03:42:26.837Z,1.00
2022-09-15T03:44:53.471Z,1.00
2022-09-15T03:47:20.093Z,1.00
2022-09-15T03:49:46.718Z,1.00
2022-09-15T03:52:13.777Z,1.00
2022-09-15T03:54:41.364Z,1.00
2022-09-15T03:57:08.013Z,1.00
2022-09-15T03:59:34.614Z,1.00
2022-09-15T04:02:01.274Z,1.00
2022-09-15T04:04:28.154Z,1.00
2022-09-15T04:06:54.754Z,1.00
2022-09-15T04:09:21.489Z,1.00
2022-09-15T04:11:48.208Z,1.00
2022-09-15T04:14:15.588Z,1.50
2022-09-15T04:16:42.238Z,5.40
2022-09-15T04:19:08.911Z,1.00
2022-09-15T04:21:35.875Z,1.00
2022-09-15T04:24:04.694Z,1.00
2022-09-15T04:26:33.377Z,1.20
2022-09-15T04:29:04.272Z,1.00
2022-09-15T04:31:32.321Z,3.60
2022-09-15T04:33:59.407Z,2.60
2022-09-15T04:36:28.279Z,1.00
2022-09-15T04:38:55.750Z,1.00
2022-09-15T04:41:22.944Z,1.00
2022-09-15T04:43:49.861Z,2.00
2022-09-15T04:46:18.439Z,1.00
2022-09-15T04:48:46.250Z,1.00
2022-09-15T04:51:15.975Z,1.00
2022-09-15T04:53:43.269Z,1.00
2022-09-15T04:56:12.482Z,1.00
2022-09-15T04:58:40.776Z,1.00
2022-09-15T05:01:10.259Z,1.00
2022-09-15T05:03:37.727Z,1.00
2022-09-15T05:06:06.232Z,1.00
2022-09-15T05:08:33.157Z,1.10
2022-09-15T05:11:01.761Z,1.00
2022-09-15T05:13:28.567Z,1.00
2022-09-15T05:15:55.321Z,1.30
2022-09-15T05:18:22.247Z,1.00
2022-09-15T05:20:48.909Z,1.80
2022-09-15T05:23:15.696Z,1.00
2022-09-15T05:25:42.306Z,2.40
2022-09-15T05:28:08.940Z,3.50
2022-09-15T05:30:39.533Z,1.20
2022-09-15T05:33:08.115Z,2.10
2022-09-15T05:35:34.760Z,5.00
2022-09-15T05:38:01.562Z,5.80
2022-09-15T05:40:28.322Z,5.60
2022-09-15T05:42:55.122Z,3.90
2022-09-15T05:45:21.942Z,5.30
2022-09-15T05:47:48.542Z,5.50
2022-09-15T05:50:15.281Z,5.10
2022-09-15T05:52:41.895Z,5.00
2022-09-15T05:55:09.518Z,5.20
2022-09-15T05:57:36.249Z,4.60
2022-09-15T06:00:04.297Z,4.50
2022-09-15T06:02:31.146Z,5.50
2022-09-15T06:04:58.309Z,7.70
2022-09-15T06:07:24.977Z,8.80
2022-09-15T06:09:51.605Z,5.10
2022-09-15T06:12:19.115Z,5.30
2022-09-15T06:14:50.281Z,5.40
2022-09-15T06:17:17.655Z,5.10
2022-09-15T06:19:44.325Z,5.70
2022-09-15T06:22:11.033Z,7.30
2022-09-15T06:24:37.789Z,8.20
2022-09-15T06:27:04.543Z,9.20
2022-09-15T06:29:32.442Z,9.40
2022-09-15T06:32:02.858Z,9.90
2022-09-15T06:34:29.873Z,14.00
2022-09-15T06:36:56.475Z,14.40
2022-09-15T06:39:23.122Z,13.70
2022-09-15T06:42:02.353Z,15.90
2022-09-15T06:44:30.369Z,14.90
2022-09-15T06:46:56.987Z,13.20
2022-09-15T06:49:23.634Z,15.60
2022-09-15T06:51:50.305Z,14.70
2022-09-15T06:54:17.623Z,17.10
2022-09-15T06:56:44.759Z,16.50
2022-09-15T06:59:12.670Z,18.40
2022-09-15T07:01:39.514Z,17.90
2022-09-15T07:04:09.667Z,15.50
2022-09-15T07:06:37.746Z,16.10
2022-09-15T07:09:05.833Z,15.90
2022-09-15T07:11:33.103Z,15.80
2022-09-15T07:13:59.756Z,15.80
2022-09-15T07:16:26.488Z,16.10
2022-09-15T07:18:55.372Z,15.90
2022-09-15T07:21:22.028Z,14.90
2022-09-15T07:23:49.366Z,18.20
2022-09-15T07:26:19.063Z,20.30
2022-09-15T07:28:50.963Z,20.10
2022-09-15T07:31:20.158Z,19.40
2022-09-15T07:33:46.900Z,18.40
2022-09-15T07:36:13.712Z,18.40
2022-09-15T07:38:42.632Z,17.70
2022-09-15T07:41:12.906Z,16.90
2022-09-15T07:43:40.057Z,20.90
2022-09-15T07:46:07.211Z,22.80
2022-09-15T07:48:33.930Z,24.60
2022-09-15T07:51:00.587Z,26.60
2022-09-15T07:53:30.574Z,28.20
2022-09-15T07:55:57.680Z,29.70
2022-09-15T07:58:25.082Z,25.80
2022-09-15T08:00:52.090Z,26.30
2022-09-15T08:03:18.970Z,28.40
2022-09-15T08:05:46.305Z,25.20
2022-09-15T08:08:13.401Z,27.10
2022-09-15T08:10:41.228Z,27.50
2022-09-15T08:13:08.433Z,27.90
2022-09-15T08:15:38.791Z,25.80
2022-09-15T08:18:06.126Z,29.40
2022-09-15T08:20:33.482Z,27.80
2022-09-15T08:23:00.119Z,26.20
2022-09-15T08:25:26.772Z,22.10
2022-09-15T08:27:54.492Z,22.30
2022-09-15T08:30:21.930Z,22.70
2022-09-15T08:32:49.263Z,23.30
2022-09-15T08:35:16.610Z,21.30
2022-09-15T08:37:43.229Z,19.80
2022-09-15T08:40:19.338Z,21.60
2022-09-15T08:42:46.950Z,20.70
2022-09-15T08:45:27.647Z,23.00
2022-09-15T08:47:58.666Z,25.10
2022-09-15T08:50:27.261Z,25.30
2022-09-15T08:52:59.688Z,22.70
2022-09-15T08:55:41.590Z,23.60
2022-09-15T08:58:15.964Z,26.90
2022-09-15T09:00:43.251Z,22.00
2022-09-15T09:03:19.116Z,23.30
2022-09-15T09:05:51.978Z,22.00
2022-09-15T09:08:30.923Z,22.50
2022-09-15T09:11:44.909Z,18.30
2022-09-15T09:14:19.273Z,25.40
2022-09-15T09:17:09.984Z,32.20
2022-09-15T09:19:39.654Z,33.00
2022-09-15T09:22:10.762Z,28.40
2022-09-15T09:24:46.029Z,28.80
2022-09-15T09:27:15.326Z,28.40
2022-09-15T09:29:49.999Z,26.90
2022-09-15T09:32:32.563Z,28.70
2022-09-15T09:35:04.071Z,28.70
2022-09-15T09:37:30.849Z,30.00
2022-09-15T09:39:57.527Z,30.20
2022-09-15T09:42:28.834Z,28.80
2022-09-15T09:44:55.577Z,27.60
2022-09-15T09:47:27.363Z,28.30
2022-09-15T09:49:54.018Z,26.00
2022-09-15T09:52:40.343Z,27.10
2022-09-15T09:55:18.832Z,28.20
2022-09-15T09:57:45.436Z,26.10
2022-09-15T10:00:36.370Z,26.00
2022-09-15T10:03:19.230Z,26.40
2022-09-15T10:06:01.030Z,25.60
2022-09-15T10:08:27.805Z,28.50
2022-09-15T10:10:57.303Z,27.50
2022-09-15T10:13:26.237Z,26.10
2022-09-15T10:15:55.619Z,27.50
2022-09-15T10:18:37.056Z,26.80
2022-09-15T10:21:06.026Z,26.00
2022-09-15T10:23:34.224Z,24.60
2022-09-15T10:26:22.196Z,24.70
2022-09-15T10:29:17.474Z,22.60
2022-09-15T10:31:45.397Z,22.20
2022-09-15T10:34:25.387Z,22.60
2022-09-15T10:37:11.106Z,22.10
2022-09-15T10:39:51.938Z,21.50
2022-09-15T10:42:40.146Z,21.40
2022-09-15T10:45:16.179Z,18.90
2022-09-15T10:48:02.913Z,19.70
2022-09-15T10:50:35.318Z,18.40
2022-09-15T10:53:16.603Z,17.10
2022-09-15T10:56:03.842Z,17.00
2022-09-15T10:58:55.717Z,16.90
2022-09-15T11:01:31.173Z,16.50
2022-09-15T11:04:31.926Z,15.40
2022-09-15T11:07:15.227Z,14.80
2022-09-15T11:10:12.056Z,15.50
2022-09-15T11:12:48.478Z,15.40
2022-09-15T11:15:36.563Z,14.90
2022-09-15T11:18:14.077Z,14.80
2022-09-15T11:21:04.987Z,15.00
2022-09-15T11:23:42.561Z,14.60
2022-09-15T11:26:40.122Z,14.80
2022-09-15T11:29:26.864Z,14.50
2022-09-15T11:32:13.528Z,14.30
2022-09-15T11:34:46.736Z,13.40
2022-09-15T11:37:21.709Z,14.10
2022-09-15T11:39:57.368Z,14.00
2022-09-15T11:42:33.493Z,13.70
2022-09-15T11:45:00.878Z,14.00
2022-09-15T11:47:34.135Z,12.50
2022-09-15T11:50:02.154Z,13.00
2022-09-15T11:52:54.640Z,12.90
2022-09-15T11:55:55.113Z,13.00
2022-09-15T11:58:30.001Z,12.70
2022-09-15T12:01:11.584Z,13.40
2022-09-15T12:03:42.528Z,11.10
2022-09-15T12:06:17.062Z,11.20
2022-09-15T12:09:02.462Z,12.30
2022-09-15T12:11:31.348Z,12.40
2022-09-15T12:13:59.798Z,12.70
2022-09-15T12:16:27.171Z,13.20
2022-09-15T12:19:03.589Z,12.50
2022-09-15T12:21:59.511Z,12.10
2022-09-15T12:24:46.269Z,12.70
2022-09-15T12:27:17.614Z,12.90
2022-09-15T12:29:58.231Z,12.70
2022-09-15T12:32:27.569Z,12.40
2022-09-15T12:35:03.994Z,11.70
2022-09-15T12:37:39.777Z,11.90
2022-09-15T12:40:12.758Z,12.10
2022-09-15T12:42:46.112Z,11.30
2022-09-15T12:45:31.307Z,11.90
2022-09-15T12:48:02.854Z,11.70
2022-09-15T12:50:40.311Z,11.30
2022-09-15T12:53:23.196Z,11.00
2022-09-15T12:56:01.562Z,11.60
2022-09-15T12:58:47.081Z,12.60
2022-09-15T13:01:20.628Z,12.80
2022-09-15T13:03:48.804Z,13.00
2022-09-15T13:06:31.173Z,12.50
2022-09-15T13:09:06.238Z,13.20
2022-09-15T13:11:47.567Z,13.90
2022-09-15T13:14:24.878Z,13.60
2022-09-15T13:17:14.324Z,14.40
2022-09-15T13:19:46.516Z,13.70
2022-09-15T13:22:32.044Z,13.30
2022-09-15T13:25:16.697Z,13.80
2022-09-15T13:27:46.058Z,17.10
2022-09-15T13:30:21.345Z,19.30
2022-09-15T13:32:57.972Z,21.00
2022-09-15T13:35:45.885Z,23.40
2022-09-15T13:38:40.262Z,20.80
2022-09-15T13:41:22.304Z,20.60
2022-09-15T13:44:06.822Z,20.70
2022-09-15T13:46:36.164Z,19.80
2022-09-15T13:49:27.552Z,19.30
2022-09-15T13:52:00.206Z,14.20
2022-09-15T13:54:26.873Z,14.20
2022-09-15T13:56:53.591Z,14.50
2022-09-15T13:59:27.837Z,15.20
2022-09-15T14:01:54.962Z,16.70
2022-09-15T14:04:27.930Z,11.70
2022-09-15T14:07:00.060Z,12.20
2022-09-15T14:09:28.887Z,9.50
2022-09-15T14:11:59.180Z,9.00
2022-09-15T14:14:31.388Z,13.10
2022-09-15T14:16:58.336Z,5.50
2022-09-15T14:19:36.185Z,7.40
2022-09-15T14:22:21.113Z,7.20
2022-09-15T14:24:47.948Z,8.30
2022-09-15T14:27:21.458Z,9.00
2022-09-15T14:29:50.267Z,6.40
2022-09-15T14:32:17.346Z,7.80
2022-09-15T14:34:44.853Z,7.50
2022-09-15T14:37:28.481Z,1.00
2022-09-15T14:39:57.265Z,3.00
2022-09-15T14:42:31.007Z,1.50
2022-09-15T14:48:01.386Z,1.00
2022-09-15T14:50:32.531Z,1.00
2022-09-15T14:53:05.808Z,1.00
2022-09-15T14:55:55.445Z,1.00
2022-09-15T14:58:25.885Z,1.00
2022-09-15T15:01:17.294Z,1.00
2022-09-15T15:04:09.818Z,1.00
2022-09-15T15:07:01.766Z,1.00
2022-09-15T15:09:41.269Z,1.00
2022-09-15T15:12:33.373Z,1.00
2022-09-15T15:15:00.503Z,1.00
2022-09-15T15:17:34.011Z,1.00
2022-09-15T15:20:09.652Z,1.00
2022-09-15T15:22:37.877Z,1.00
2022-09-15T15:25:32.325Z,1.00
2022-09-15T15:28:00.148Z,1.00
2022-09-15T15:30:33.859Z,1.00
2022-09-15T15:33:27.476Z,1.00
2022-09-15T15:36:08.112Z,1.00
2022-09-15T15:38:36.973Z,1.00
2022-09-15T15:41:10.273Z,1.00
2022-09-15T15:43:37.604Z,1.00
2022-09-15T15:46:05.884Z,1.00
2022-09-15T15:48:37.950Z,1.00
2022-09-15T15:51:05.822Z,1.00
2022-09-15T15:53:32.647Z,1.00
2022-09-15T15:56:00.797Z,1.00
2022-09-15T15:58:27.523Z,1.00
2022-09-15T16:00:56.410Z,1.00
2022-09-15T16:03:24.096Z,1.00
2022-09-15T16:05:52.613Z,1.00
2022-09-15T16:08:32.147Z,1.00
2022-09-15T16:11:02.716Z,1.00
2022-09-15T16:13:29.426Z,1.00
2022-09-15T16:15:57.839Z,1.00
2022-09-15T16:18:24.834Z,1.00
2022-09-15T16:20:51.486Z,1.00
2022-09-15T16:23:20.643Z,1.00
2022-09-15T16:26:04.470Z,1.00
2022-09-15T16:28:31.665Z,1.00
2022-09-15T16:30:58.819Z,1.00
2022-09-15T16:33:25.978Z,1.00
2022-09-15T16:36:03.754Z,1.00
2022-09-15T16:38:30.475Z,1.00
2022-09-15T16:40:57.235Z,1.00
2022-09-15T16:43:23.828Z,1.00
2022-09-15T16:45:51.241Z,1.00
2022-09-15T16:48:18.394Z,1.00
2022-09-15T16:51:01.726Z,1.00
2022-09-15T16:53:33.290Z,1.00
2022-09-15T16:55:59.911Z,1.00
2022-09-15T16:58:26.627Z,1.00
2022-09-15T17:00:53.481Z,1.00
2022-09-15T17:03:22.683Z,1.00
2022-09-15T17:05:51.342Z,1.00
2022-09-15T17:08:20.602Z,1.00
2022-09-15T17:10:48.198Z,1.00
2022-09-15T17:13:17.516Z,1.00
2022-09-15T17:15:48.651Z,1.00
2022-09-15T17:18:15.998Z,1.00
2022-09-15T17:20:44.258Z,1.00
2022-09-15T17:23:34.725Z,1.00
2022-09-15T17:26:04.128Z,1.00
2022-09-15T17:28:33.050Z,1.00
2022-09-15T17:31:05.687Z,1.00
2022-09-15T17:33:32.769Z,1.00
2022-09-15T17:36:00.363Z,1.00
2022-09-15T17:38:27.149Z,1.00
2022-09-15T17:40:55.408Z,1.00
2022-09-15T17:43:25.156Z,1.00
2022-09-15T17:45:52.303Z,1.00
2022-09-15T17:48:19.252Z,1.00
2022-09-15T17:50:48.527Z,1.00
2022-09-15T17:53:17.857Z,1.00
2022-09-15T17:55:44.752Z,1.00
2022-09-15T17:58:11.798Z,1.00
2022-09-15T18:00:40.675Z,1.00
2022-09-15T18:03:18.203Z,1.00
2022-09-15T18:05:45.024Z,1.00
2022-09-15T18:08:12.134Z,1.00
2022-09-15T18:10:38.964Z,1.00
2022-09-15T18:13:06.254Z,1.00
2022-09-15T18:15:34.900Z,1.00
2022-09-15T18:18:04.077Z,1.00
2022-09-15T18:20:32.528Z,1.00
2022-09-15T18:23:00.036Z,1.00
2022-09-15T18:25:37.382Z,1.00
2022-09-15T18:28:04.378Z,1.00
2022-09-15T18:30:34.600Z,1.00
2022-09-15T18:33:01.296Z,1.00
2022-09-15T18:35:27.951Z,1.00
2022-09-15T18:37:59.327Z,1.00
2022-09-15T18:40:27.411Z,1.00
2022-09-15T18:42:54.237Z,1.00
2022-09-15T18:45:20.951Z,1.00
2022-09-15T18:47:52.011Z,1.00
2022-09-15T18:50:23.264Z,1.00
2022-09-15T18:52:50.287Z,1.00
2022-09-15T18:55:19.337Z,1.00
2022-09-15T18:57:46.040Z,1.00
2022-09-15T19:00:17.905Z,1.00
2022-09-15T19:02:44.550Z,1.00
2022-09-15T19:05:11.692Z,1.00
2022-09-15T19:07:39.064Z,1.00
2022-09-15T19:10:07.085Z,1.00
2022-09-15T19:12:35.257Z,1.00
2022-09-15T19:15:02.371Z,1.00
2022-09-15T19:17:29.003Z,1.00
2022-09-15T19:19:55.774Z,1.00
2022-09-15T19:22:22.406Z,1.00
2022-09-15T19:24:49.761Z,1.00
2022-09-15T19:27:16.392Z,1.00
2022-09-15T19:29:43.007Z,1.00
2022-09-15T19:32:12.748Z,1.00
2022-09-15T19:34:41.169Z,1.00
2022-09-15T19:37:13.060Z,1.00
2022-09-15T19:39:41.966Z,1.00
2022-09-15T19:42:10.233Z,1.00
2022-09-15T19:44:36.829Z,1.00
2022-09-15T19:47:03.535Z,1.00
2022-09-15T19:49:30.471Z,1.00
2022-09-15T19:51:57.060Z,1.00
2022-09-15T19:54:28.220Z,1.00
2022-09-15T19:56:56.053Z,1.00
2022-09-15T19:59:26.268Z,1.00
2022-09-15T20:01:55.542Z,1.00
2022-09-15T20:04:22.276Z,1.00
2022-09-15T20:06:48.881Z,1.00
2022-09-15T20:09:15.586Z,1.00
2022-09-15T20:11:42.188Z,1.00
2022-09-15T20:14:08.791Z,1.00
2022-09-15T20:16:35.483Z,1.00
2022-09-15T20:19:04.102Z,1.00
2022-09-15T20:21:49.354Z,1.00
2022-09-15T20:24:17.610Z,1.00
2022-09-15T20:26:44.227Z,1.00
2022-09-15T20:29:11.570Z,1.00
2022-09-15T20:31:38.177Z,1.00
2022-09-15T20:34:05.227Z,1.00
2022-09-15T20:36:35.455Z,1.00
2022-09-15T20:39:04.030Z,1.00
2022-09-15T20:41:34.129Z,1.00
2022-09-15T20:44:01.088Z,1.00
2022-09-15T20:46:31.360Z,1.00
2022-09-15T20:48:58.092Z,1.00
2022-09-15T20:51:27.808Z,1.00
2022-09-15T20:53:55.676Z,1.00
2022-09-15T20:56:25.365Z,1.00
2022-09-15T20:58:53.851Z,1.00
2022-09-15T21:01:23.032Z,1.00
2022-09-15T21:03:50.155Z,1.00
2022-09-15T21:06:19.454Z,1.00
2022-09-15T21:08:47.598Z,1.00
2022-09-15T21:11:15.851Z,1.00
2022-09-15T21:13:43.520Z,1.00
2022-09-15T21:16:12.422Z,1.00
2022-09-15T21:18:39.886Z,1.00
2022-09-15T21:21:11.082Z,1.00
2022-09-15T21:23:42.655Z,1.00
2022-09-15T21:26:14.298Z,1.00
2022-09-15T21:28:42.637Z,1.00
2022-09-15T21:31:11.524Z,1.00
2022-09-15T21:33:38.937Z,1.00
2022-09-15T21:36:09.651Z,1.00
2022-09-15T21:38:37.922Z,1.00
2022-09-15T21:41:06.120Z,1.00
2022-09-15T21:43:35.842Z,1.00
2022-09-15T21:46:04.758Z,1.00
2022-09-15T21:48:32.210Z,1.00
2022-09-15T21:50:58.953Z,1.00
2022-09-15T21:53:25.963Z,1.00
2022-09-15T21:55:52.717Z,1.00
2022-09-15T21:58:26.056Z,1.00
2022-09-15T22:00:53.370Z,1.00
2022-09-15T22:03:20.760Z,1.00
2022-09-15T22:05:47.833Z,1.00
2022-09-15T22:08:16.158Z,1.00
2022-09-15T22:10:44.019Z,1.00
2022-09-15T22:13:11.562Z,1.00
2022-09-15T22:15:38.966Z,1.00
2022-09-15T22:18:06.656Z,1.00
2022-09-15T22:20:33.357Z,1.00
2022-09-15T22:23:01.209Z,1.00
2022-09-15T22:25:28.941Z,1.00
2022-09-15T22:27:55.563Z,1.00
2022-09-15T22:30:22.243Z,1.00
2022-09-15T22:32:48.848Z,1.00
2022-09-15T22:35:17.281Z,1.00
2022-09-15T22:37:44.033Z,1.00
2022-09-15T22:40:10.984Z,1.00
2022-09-15T22:42:38.044Z,1.00
2022-09-15T22:45:05.364Z,1.00
2022-09-15T22:47:33.664Z,1.00
2022-09-15T22:50:00.312Z,1.00
2022-09-15T22:52:26.911Z,1.00
2022-09-15T22:54:53.646Z,1.00
2022-09-15T22:57:20.463Z,1.00
2022-09-15T22:59:47.195Z,1.00
2022-09-15T23:02:13.911Z,1.00
2022-09-15T23:04:40.609Z,1.00
2022-09-15T23:07:07.198Z,1.00
2022-09-15T23:09:34.256Z,1.00
2022-09-15T23:12:01.003Z,1.00
2022-09-15T23:14:27.722Z,1.00
2022-09-15T23:16:54.432Z,1.00
2022-09-15T23:19:21.045Z,1.00
2022-09-15T23:21:47.709Z,1.00
2022-09-15T23:24:17.055Z,1.00
2022-09-15T23:26:43.645Z,1.00
2022-09-15T23:29:10.353Z,1.00
2022-09-15T23:31:37.104Z,1.00
2022-09-15T23:34:03.757Z,1.00
2022-09-15T23:36:30.369Z,1.00
2022-09-15T23:38:57.074Z,1.00
2022-09-15T23:41:24.606Z,1.00
2022-09-15T23:43:51.585Z,1.00
2022-09-15T23:46:18.381Z,1.00
2022-09-15T23:48:45.172Z,1.00
2022-09-15T23:51:14.650Z,1.00
2022-09-15T23:53:41.290Z,1.00
2022-09-15T23:56:08.317Z,1.00
2022-09-15T23:58:35.237Z,1.00
